createdAt,value
2016-12-27T00:00:33.639Z,0
2016-12-27T00:01:42.842Z,0
2016-12-27T00:02:51.803Z,0
2016-12-27T00:04:00.695Z,0
2016-12-27T00:05:09.902Z,0
2016-12-27T00:06:18.471Z,0
2016-12-27T00:07:27.353Z,0
2016-12-27T00:08:36.272Z,0
2016-12-27T00:09:44.837Z,0
2016-12-27T00:10:53.404Z,0
2016-12-27T00:12:02.295Z,0
2016-12-27T00:13:11.181Z,0
2016-12-27T00:14:20.517Z,0
2016-12-27T00:15:29.081Z,0
2016-12-27T00:16:37.966Z,0
2016-12-27T00:17:46.855Z,0
2016-12-27T00:18:55.425Z,0
2016-12-27T00:20:04.184Z,0
2016-12-27T00:21:12.755Z,0
2016-12-27T00:22:21.322Z,0
2016-12-27T00:23:30.203Z,0
2016-12-27T00:24:39.087Z,0
2016-12-27T00:25:48.328Z,0
2016-12-27T00:26:57.528Z,0
2016-12-27T00:28:06.415Z,0
2016-12-27T00:29:14.982Z,0
2016-12-27T00:30:24.182Z,0
2016-12-27T00:31:33.417Z,0
2016-12-27T00:32:41.980Z,0
2016-12-27T00:33:51.188Z,0
2016-12-27T00:35:00.394Z,0
2016-12-27T00:36:09.282Z,0
2016-12-27T00:37:18.198Z,0
2016-12-27T00:38:27.405Z,0
2016-12-27T00:39:35.972Z,0
2016-12-27T00:40:44.853Z,0
2016-12-27T00:41:54.056Z,0
2016-12-27T00:43:02.976Z,0
2016-12-27T00:44:11.545Z,0
2016-12-27T00:45:20.753Z,0
2016-12-27T00:46:29.320Z,0
2016-12-27T00:47:38.558Z,0
2016-12-27T00:48:47.890Z,0
2016-12-27T00:49:57.110Z,0
2016-12-27T00:51:05.998Z,0
2016-12-27T00:52:14.565Z,0
2016-12-27T00:53:23.458Z,0
2016-12-27T00:54:32.374Z,0
2016-12-27T00:55:40.943Z,0
2016-12-27T00:56:50.149Z,0
2016-12-27T00:57:58.717Z,0
2016-12-27T00:59:07.606Z,0
2016-12-27T01:00:16.573Z,0
2016-12-27T01:01:25.463Z,0
2016-12-27T01:02:34.027Z,0
2016-12-27T01:03:42.919Z,0
2016-12-27T01:04:51.807Z,0
2016-12-27T01:06:00.530Z,0
2016-12-27T01:07:09.424Z,0
2016-12-27T01:08:17.993Z,0
2016-12-27T01:09:27.200Z,0
2016-12-27T01:10:36.402Z,0
2016-12-27T01:11:45.423Z,0
2016-12-27T01:12:54.313Z,0
2016-12-27T01:14:03.199Z,0
2016-12-27T01:15:11.766Z,0
2016-12-27T01:16:20.971Z,0
2016-12-27T01:17:30.165Z,0
2016-12-27T01:18:38.737Z,0
2016-12-27T01:19:47.301Z,0
2016-12-27T01:20:55.869Z,0
2016-12-27T01:22:04.753Z,0
2016-12-27T01:23:13.968Z,0
2016-12-27T01:24:22.537Z,0
2016-12-27T01:25:31.106Z,0
2016-12-27T01:26:39.681Z,0
2016-12-27T01:27:48.571Z,0
2016-12-27T01:28:57.758Z,0
2016-12-27T01:30:06.966Z,0
2016-12-27T01:31:15.857Z,0
2016-12-27T01:32:25.380Z,0
2016-12-27T01:33:34.268Z,0
2016-12-27T01:34:43.237Z,0
2016-12-27T01:35:52.120Z,0
2016-12-27T01:37:01.007Z,0
2016-12-27T01:38:09.577Z,0
2016-12-27T01:39:18.144Z,0
2016-12-27T01:40:27.434Z,0
2016-12-27T01:41:36.325Z,0
2016-12-27T01:42:45.214Z,0
2016-12-27T01:43:53.779Z,0
2016-12-27T01:45:02.346Z,0
2016-12-27T01:46:11.615Z,0
2016-12-27T01:47:20.180Z,0
2016-12-27T01:48:29.383Z,0
2016-12-27T01:49:37.953Z,0
2016-12-27T01:50:46.518Z,0
2016-12-27T01:51:55.455Z,0
2016-12-27T01:53:04.346Z,0
2016-12-27T01:54:13.233Z,0
2016-12-27T01:55:22.130Z,0
2016-12-27T01:56:31.351Z,0
2016-12-27T01:57:40.642Z,0
2016-12-27T01:58:49.214Z,0
2016-12-27T01:59:57.782Z,0
2016-12-27T02:01:06.349Z,0
2016-12-27T02:02:14.926Z,0
2016-12-27T02:03:24.587Z,0
2016-12-27T02:04:33.792Z,0
2016-12-27T02:05:42.997Z,0
2016-12-27T02:06:51.567Z,0
2016-12-27T02:08:00.460Z,0
2016-12-27T02:09:09.802Z,0
2016-12-27T02:10:18.692Z,0
2016-12-27T02:11:27.585Z,0
2016-12-27T02:12:36.471Z,0
2016-12-27T02:13:45.676Z,0
2016-12-27T02:14:54.645Z,0
2016-12-27T02:16:03.213Z,0
2016-12-27T02:17:11.813Z,0
2016-12-27T02:18:20.701Z,0
2016-12-27T02:19:35.538Z,0
2016-12-27T02:20:44.458Z,0
2016-12-27T02:21:53.029Z,0
2016-12-27T02:23:01.600Z,0
2016-12-27T02:24:10.174Z,0
2016-12-27T02:25:19.712Z,0
2016-12-27T02:26:29.546Z,0
2016-12-27T02:27:38.112Z,0
2016-12-27T02:28:47.315Z,0
2016-12-27T02:29:55.888Z,0
2016-12-27T02:31:04.773Z,0
2016-12-27T02:32:14.035Z,0
2016-12-27T02:33:22.921Z,0
2016-12-27T02:34:31.808Z,0
2016-12-27T02:35:40.695Z,0
2016-12-27T02:36:49.263Z,0
2016-12-27T02:37:58.609Z,0
2016-12-27T02:39:07.501Z,0
2016-12-27T02:40:16.390Z,0
2016-12-27T02:41:24.963Z,0
2016-12-27T02:42:33.530Z,0
2016-12-27T02:43:42.465Z,0
2016-12-27T02:44:51.034Z,0
2016-12-27T02:45:59.929Z,0
2016-12-27T02:47:08.504Z,0
2016-12-27T02:48:18.029Z,0
2016-12-27T02:49:26.647Z,0
2016-12-27T02:50:35.534Z,0
2016-12-27T02:51:44.102Z,0
2016-12-27T02:52:53.625Z,0
2016-12-27T02:54:02.831Z,0
2016-12-27T02:55:12.390Z,0
2016-12-27T02:56:20.958Z,0
2016-12-27T02:57:29.847Z,0
2016-12-27T02:58:38.734Z,0
2016-12-27T02:59:47.657Z,0
2016-12-27T03:00:56.968Z,0
2016-12-27T03:02:06.178Z,0
2016-12-27T03:03:15.071Z,0
2016-12-27T03:04:23.641Z,0
2016-12-27T03:05:32.211Z,0
2016-12-27T03:06:41.817Z,0
2016-12-27T03:07:50.385Z,0
2016-12-27T03:08:59.268Z,0
2016-12-27T03:10:07.843Z,0
2016-12-27T03:11:16.761Z,0
2016-12-27T03:12:25.783Z,0
2016-12-27T03:13:34.356Z,0
2016-12-27T03:14:43.565Z,0
2016-12-27T03:15:52.133Z,0
2016-12-27T03:17:01.021Z,0
2016-12-27T03:18:10.361Z,0
2016-12-27T03:19:18.939Z,0
2016-12-27T03:20:27.825Z,0
2016-12-27T03:21:37.029Z,0
2016-12-27T03:22:46.242Z,0
2016-12-27T03:23:55.801Z,0
2016-12-27T03:25:04.373Z,0
2016-12-27T03:26:12.939Z,0
2016-12-27T03:27:21.826Z,0
2016-12-27T03:28:30.723Z,0
2016-12-27T03:29:39.592Z,0
2016-12-27T03:30:48.482Z,0
2016-12-27T03:31:57.374Z,0
2016-12-27T03:33:05.950Z,0
2016-12-27T03:34:14.520Z,0
2016-12-27T03:35:23.855Z,0
2016-12-27T03:36:32.747Z,0
2016-12-27T03:37:41.641Z,0
2016-12-27T03:38:50.856Z,0
2016-12-27T03:39:59.427Z,0
2016-12-27T03:41:08.362Z,0
2016-12-27T03:42:16.932Z,0
2016-12-27T03:43:25.501Z,0
2016-12-27T03:44:35.343Z,0
2016-12-27T03:45:44.227Z,0
2016-12-27T03:46:53.785Z,0
2016-12-27T03:48:02.356Z,0
2016-12-27T03:49:11.245Z,0
2016-12-27T03:50:19.816Z,0
2016-12-27T03:51:28.385Z,0
2016-12-27T03:52:37.725Z,0
2016-12-27T03:53:46.621Z,0
2016-12-27T03:54:55.189Z,0
2016-12-27T03:56:03.757Z,0
2016-12-27T03:57:12.653Z,0
2016-12-27T03:58:21.271Z,0
2016-12-27T03:59:29.843Z,0
2016-12-27T04:00:38.731Z,0
2016-12-27T04:01:47.619Z,0
2016-12-27T04:02:56.212Z,0
2016-12-27T04:04:05.132Z,0
2016-12-27T04:05:13.702Z,0
2016-12-27T04:06:22.908Z,0
2016-12-27T04:07:31.480Z,0
2016-12-27T04:08:40.689Z,0
2016-12-27T04:09:49.931Z,0
2016-12-27T04:10:58.820Z,0
2016-12-27T04:12:07.711Z,0
2016-12-27T04:13:16.290Z,0
2016-12-27T04:14:25.180Z,0
2016-12-27T04:15:34.791Z,0
2016-12-27T04:16:43.365Z,0
2016-12-27T04:17:52.257Z,0
2016-12-27T04:19:00.855Z,0
2016-12-27T04:20:09.753Z,0
2016-12-27T04:21:18.676Z,0
2016-12-27T04:22:27.569Z,0
2016-12-27T04:23:36.458Z,0
2016-12-27T04:24:45.026Z,0
2016-12-27T04:25:53.599Z,0
2016-12-27T04:27:02.519Z,0
2016-12-27T04:28:11.409Z,0
2016-12-27T04:29:20.615Z,0
2016-12-27T04:30:29.188Z,0
2016-12-27T04:31:38.090Z,0
2016-12-27T04:32:47.363Z,0
2016-12-27T04:33:56.573Z,0
2016-12-27T04:35:05.463Z,0
2016-12-27T04:36:14.376Z,0
2016-12-27T04:37:23.275Z,0
2016-12-27T04:38:32.564Z,0
2016-12-27T04:39:41.164Z,0
2016-12-27T04:40:49.738Z,0
2016-12-27T04:41:58.305Z,0
2016-12-27T04:43:06.877Z,0
2016-12-27T04:44:15.796Z,0
2016-12-27T04:45:24.705Z,0
2016-12-27T04:46:33.276Z,0
2016-12-27T04:47:42.164Z,0
2016-12-27T04:48:50.736Z,0
2016-12-27T04:49:59.776Z,0
2016-12-27T04:51:09.017Z,0
2016-12-27T04:52:17.589Z,0
2016-12-27T04:53:26.160Z,0
2016-12-27T04:54:34.730Z,0
2016-12-27T04:55:43.667Z,0
2016-12-27T04:56:52.557Z,0
2016-12-27T04:58:01.450Z,0
2016-12-27T04:59:10.659Z,0
2016-12-27T05:00:19.233Z,0
2016-12-27T05:01:28.232Z,0
2016-12-27T05:02:37.122Z,0
2016-12-27T05:03:45.695Z,0
2016-12-27T05:04:54.581Z,0
2016-12-27T05:06:03.150Z,0
2016-12-27T05:07:12.090Z,0
2016-12-27T05:08:20.666Z,0
2016-12-27T05:09:29.235Z,0
2016-12-27T05:10:37.808Z,0
2016-12-27T05:11:47.015Z,0
2016-12-27T05:12:55.935Z,0
2016-12-27T05:14:04.824Z,0
2016-12-27T05:15:13.393Z,0
2016-12-27T05:16:21.961Z,0
2016-12-27T05:17:30.533Z,0
2016-12-27T05:18:39.403Z,0
2016-12-27T05:19:48.292Z,0
2016-12-27T05:20:57.220Z,0
2016-12-27T05:22:06.110Z,0
2016-12-27T05:23:15.320Z,0
2016-12-27T05:24:24.958Z,0
2016-12-27T05:25:34.171Z,0
2016-12-27T05:26:42.742Z,0
2016-12-27T05:27:51.322Z,0
2016-12-27T05:28:59.898Z,0
2016-12-27T05:30:09.506Z,0
2016-12-27T05:31:18.718Z,0
2016-12-27T05:32:27.614Z,0
2016-12-27T05:33:36.187Z,0
2016-12-27T05:34:44.757Z,0
2016-12-27T05:35:53.679Z,0
2016-12-27T05:37:02.252Z,0
2016-12-27T05:38:11.146Z,0
2016-12-27T05:39:20.063Z,0
2016-12-27T05:40:29.274Z,0
2016-12-27T05:41:38.244Z,0
2016-12-27T05:42:47.133Z,0
2016-12-27T05:43:55.707Z,0
2016-12-27T05:45:04.914Z,0
2016-12-27T05:46:13.485Z,0
2016-12-27T05:47:22.106Z,0
2016-12-27T05:48:30.682Z,0
2016-12-27T05:49:39.916Z,0
2016-12-27T05:50:49.121Z,0
2016-12-27T05:51:57.699Z,0
2016-12-27T05:53:06.987Z,0
2016-12-27T05:54:16.195Z,0
2016-12-27T05:55:25.401Z,0
2016-12-27T05:56:33.974Z,0
2016-12-27T05:57:42.550Z,0
2016-12-27T05:58:51.791Z,0
2016-12-27T06:00:01.010Z,0
2016-12-27T06:01:10.540Z,0
2016-12-27T06:02:19.113Z,0
2016-12-27T06:03:28.318Z,0
2016-12-27T06:04:37.259Z,0
2016-12-27T06:05:46.177Z,0
2016-12-27T06:06:54.744Z,0
2016-12-27T06:08:03.950Z,0
2016-12-27T06:09:12.840Z,0
2016-12-27T06:10:22.181Z,0
2016-12-27T06:11:31.421Z,0
2016-12-27T06:12:39.994Z,0
2016-12-27T06:13:49.198Z,0
2016-12-27T06:14:58.087Z,0
2016-12-27T06:16:07.277Z,0
2016-12-27T06:17:15.846Z,0
2016-12-27T06:18:25.092Z,0
2016-12-27T06:19:33.982Z,0
2016-12-27T06:20:42.551Z,0
2016-12-27T06:21:51.538Z,0
2016-12-27T06:23:00.434Z,0
2016-12-27T06:24:09.648Z,0
2016-12-27T06:25:18.535Z,0
2016-12-27T06:26:27.101Z,0
2016-12-27T06:27:36.029Z,0
2016-12-27T06:28:44.596Z,0
2016-12-27T06:29:53.801Z,0
2016-12-27T06:31:02.712Z,0
2016-12-27T06:32:11.282Z,0
2016-12-27T06:33:20.621Z,0
2016-12-27T06:34:29.508Z,0
2016-12-27T06:35:39.035Z,0
2016-12-27T06:36:47.611Z,0
2016-12-27T06:37:56.184Z,0
2016-12-27T06:39:04.805Z,0
2016-12-27T06:40:13.404Z,0
2016-12-27T06:41:22.287Z,0
2016-12-27T06:42:31.174Z,0
2016-12-27T06:43:40.069Z,0
2016-12-27T06:44:48.790Z,0
2016-12-27T06:45:57.682Z,0
2016-12-27T06:47:06.253Z,0
2016-12-27T06:48:14.850Z,0
2016-12-27T06:49:23.739Z,0
2016-12-27T06:50:32.662Z,0
2016-12-27T06:51:41.872Z,0
2016-12-27T06:52:50.443Z,0
2016-12-27T06:53:59.330Z,0
2016-12-27T06:55:07.901Z,0
2016-12-27T06:56:17.200Z,0
2016-12-27T06:57:26.100Z,0
2016-12-27T06:58:34.989Z,0
2016-12-27T06:59:43.876Z,0
2016-12-27T07:00:52.770Z,4
2016-12-27T07:02:01.971Z,0
2016-12-27T07:03:10.546Z,0
2016-12-27T07:04:19.120Z,4
2016-12-27T07:05:27.687Z,0
2016-12-27T07:06:36.254Z,4
2016-12-27T07:07:44.925Z,4
2016-12-27T07:08:54.453Z,8
2016-12-27T07:10:03.020Z,8
2016-12-27T07:11:11.905Z,8
2016-12-27T07:12:20.790Z,8
2016-12-27T07:13:29.728Z,12
2016-12-27T07:14:38.614Z,12
2016-12-27T07:15:47.512Z,12
2016-12-27T07:16:56.402Z,16
2016-12-27T07:18:04.978Z,20
2016-12-27T07:19:13.902Z,24
2016-12-27T07:20:22.799Z,24
2016-12-27T07:21:31.382Z,28
2016-12-27T07:22:40.277Z,40
2016-12-27T07:23:49.165Z,44
2016-12-27T07:24:58.106Z,48
2016-12-27T07:26:07.633Z,60
2016-12-27T07:27:16.202Z,68
2016-12-27T07:28:25.089Z,76
2016-12-27T07:29:33.659Z,88
2016-12-27T07:30:42.675Z,96
2016-12-27T07:31:51.247Z,112
2016-12-27T07:33:00.142Z,124
2016-12-27T07:34:09.345Z,136
2016-12-27T07:35:18.233Z,152
2016-12-27T07:36:27.197Z,164
2016-12-27T07:37:36.088Z,184
2016-12-27T07:38:44.657Z,200
2016-12-27T07:39:53.549Z,220
2016-12-27T07:41:02.760Z,240
2016-12-27T07:42:11.739Z,260
2016-12-27T07:43:20.628Z,280
2016-12-27T07:44:29.517Z,304
2016-12-27T07:45:38.087Z,328
2016-12-27T07:46:46.975Z,356
2016-12-27T07:47:55.842Z,384
2016-12-27T07:49:04.410Z,416
2016-12-27T07:50:13.308Z,448
2016-12-27T07:51:21.881Z,484
2016-12-27T07:52:30.449Z,524
2016-12-27T07:53:39.416Z,564
2016-12-27T07:54:48.304Z,604
2016-12-27T07:55:57.510Z,640
2016-12-27T07:57:06.719Z,684
2016-12-27T07:58:15.608Z,728
2016-12-27T07:59:24.329Z,772
2016-12-27T08:00:32.900Z,808
2016-12-27T08:01:41.473Z,840
2016-12-27T08:02:50.363Z,876
2016-12-27T08:03:59.252Z,904
2016-12-27T08:05:08.221Z,948
2016-12-27T08:06:16.806Z,1004
2016-12-27T08:07:26.333Z,1060
2016-12-27T08:08:35.544Z,1108
2016-12-27T08:09:44.429Z,1144
2016-12-27T08:10:53.449Z,1188
2016-12-27T08:12:02.355Z,1264
2016-12-27T08:13:11.243Z,1404
2016-12-27T08:14:20.129Z,1292
2016-12-27T08:15:29.019Z,1304
2016-12-27T08:16:38.040Z,1336
2016-12-27T08:17:46.618Z,1360
2016-12-27T08:18:55.190Z,1384
2016-12-27T08:20:03.756Z,1408
2016-12-27T08:21:12.330Z,1420
2016-12-27T08:22:21.248Z,1428
2016-12-27T08:23:30.457Z,1436
2016-12-27T08:24:39.344Z,1436
2016-12-27T08:25:47.912Z,1420
2016-12-27T08:26:56.799Z,1408
2016-12-27T08:28:05.719Z,1404
2016-12-27T08:29:14.608Z,1408
2016-12-27T08:30:23.818Z,1452
2016-12-27T08:31:33.024Z,1476
2016-12-27T08:32:41.911Z,1544
2016-12-27T08:33:51.237Z,1604
2016-12-27T08:35:00.129Z,1580
2016-12-27T08:36:09.021Z,1636
2016-12-27T08:37:17.593Z,1664
2016-12-27T08:38:26.164Z,1700
2016-12-27T08:39:35.079Z,1748
2016-12-27T08:40:43.976Z,1820
2016-12-27T08:41:52.864Z,1844
2016-12-27T08:43:01.433Z,1888
2016-12-27T08:44:10.647Z,2028
2016-12-27T08:45:19.582Z,1968
2016-12-27T08:46:28.469Z,2000
2016-12-27T08:47:37.362Z,2068
2016-12-27T08:48:46.251Z,2152
2016-12-27T08:49:55.136Z,2248
2016-12-27T08:51:04.006Z,2340
2016-12-27T08:52:12.899Z,2424
2016-12-27T08:53:21.470Z,2488
2016-12-27T08:54:30.040Z,2504
2016-12-27T08:55:38.613Z,2512
2016-12-27T08:56:47.651Z,2532
2016-12-27T08:57:56.223Z,2500
2016-12-27T08:59:05.117Z,2496
2016-12-27T09:00:13.689Z,2512
2016-12-27T09:01:22.579Z,2560
2016-12-27T09:02:31.249Z,2684
2016-12-27T09:03:40.140Z,3164
2016-12-27T09:04:49.029Z,4204
2016-12-27T09:05:57.598Z,3980
2016-12-27T09:07:06.807Z,3208
2016-12-27T09:08:15.753Z,3240
2016-12-27T09:09:24.646Z,2316
2016-12-27T09:10:33.217Z,2836
2016-12-27T09:11:41.788Z,3364
2016-12-27T09:12:50.359Z,3448
2016-12-27T09:13:59.280Z,2844
2016-12-27T09:15:08.196Z,2776
2016-12-27T09:16:17.086Z,2604
2016-12-27T09:17:25.671Z,2680
2016-12-27T09:18:34.277Z,3112
2016-12-27T09:19:43.197Z,3256
2016-12-27T09:20:52.087Z,3136
2016-12-27T09:22:01.301Z,3220
2016-12-27T09:23:09.868Z,3304
2016-12-27T09:24:18.439Z,3412
2016-12-27T09:25:27.629Z,3484
2016-12-27T09:26:36.201Z,3580
2016-12-27T09:27:44.778Z,3648
2016-12-27T09:28:53.344Z,3788
2016-12-27T09:30:01.912Z,4052
2016-12-27T09:31:10.855Z,4352
2016-12-27T09:32:19.742Z,4584
2016-12-27T09:33:28.949Z,4748
2016-12-27T09:34:37.840Z,5096
2016-12-27T09:35:46.733Z,5412
2016-12-27T09:36:55.981Z,5580
2016-12-27T09:38:04.871Z,5340
2016-12-27T09:39:13.443Z,5372
2016-12-27T09:40:22.336Z,5716
2016-12-27T09:41:31.865Z,4832
2016-12-27T09:42:41.425Z,3948
2016-12-27T09:43:50.001Z,3800
2016-12-27T09:44:58.574Z,3208
2016-12-27T09:46:07.147Z,3524
2016-12-27T09:47:16.389Z,5000
2016-12-27T09:48:25.633Z,3964
2016-12-27T09:49:34.204Z,4804
2016-12-27T09:50:43.093Z,3384
2016-12-27T09:51:51.659Z,2852
2016-12-27T09:53:00.227Z,2852
2016-12-27T09:54:09.169Z,2860
2016-12-27T09:55:18.385Z,2496
2016-12-27T09:56:27.273Z,3248
2016-12-27T09:57:35.841Z,3268
2016-12-27T09:58:44.411Z,3072
2016-12-27T09:59:53.336Z,3084
2016-12-27T10:01:01.923Z,3152
2016-12-27T10:02:10.500Z,3344
2016-12-27T10:03:19.416Z,3596
2016-12-27T10:04:27.993Z,3796
2016-12-27T10:05:37.233Z,3916
2016-12-27T10:06:45.806Z,3864
2016-12-27T10:07:54.382Z,3944
2016-12-27T10:09:02.958Z,4040
2016-12-27T10:10:11.531Z,3996
2016-12-27T10:11:20.448Z,4016
2016-12-27T10:12:29.333Z,4072
2016-12-27T10:13:37.910Z,4108
2016-12-27T10:14:46.483Z,4116
2016-12-27T10:15:55.057Z,4148
2016-12-27T10:17:03.979Z,4164
2016-12-27T10:18:12.865Z,4188
2016-12-27T10:19:21.439Z,4184
2016-12-27T10:20:30.334Z,4176
2016-12-27T10:21:39.235Z,4212
2016-12-27T10:22:49.117Z,4240
2016-12-27T10:23:58.329Z,4240
2016-12-27T10:25:06.909Z,4260
2016-12-27T10:26:16.120Z,4240
2016-12-27T10:27:25.329Z,4260
2016-12-27T10:28:34.252Z,4244
2016-12-27T10:29:42.827Z,4272
2016-12-27T10:30:51.720Z,4452
2016-12-27T10:32:00.929Z,4848
2016-12-27T10:33:09.502Z,6188
2016-12-27T10:34:18.420Z,7516
2016-12-27T10:35:27.311Z,7408
2016-12-27T10:36:35.882Z,7376
2016-12-27T10:37:44.456Z,5072
2016-12-27T10:38:53.350Z,5324
2016-12-27T10:40:02.618Z,5020
2016-12-27T10:41:11.520Z,4788
2016-12-27T10:42:20.726Z,4404
2016-12-27T10:43:29.623Z,4868
2016-12-27T10:44:38.513Z,4940
2016-12-27T10:45:47.439Z,4860
2016-12-27T10:46:56.008Z,4592
2016-12-27T10:48:04.900Z,4708
2016-12-27T10:49:13.789Z,4760
2016-12-27T10:50:22.362Z,4952
2016-12-27T10:51:31.303Z,4808
2016-12-27T10:52:39.878Z,3960
2016-12-27T10:53:48.797Z,4836
2016-12-27T10:54:57.377Z,5556
2016-12-27T10:56:05.982Z,5812
2016-12-27T10:57:14.928Z,5572
2016-12-27T10:58:23.821Z,5508
2016-12-27T10:59:32.710Z,5556
2016-12-27T11:00:41.283Z,5292
2016-12-27T11:01:49.856Z,5412
2016-12-27T11:02:58.783Z,5632
2016-12-27T11:04:08.317Z,5460
2016-12-27T11:05:17.205Z,4612
2016-12-27T11:06:26.414Z,4272
2016-12-27T11:07:34.986Z,4104
2016-12-27T11:08:43.912Z,4248
2016-12-27T11:09:52.800Z,5716
2016-12-27T11:11:01.379Z,5704
2016-12-27T11:12:10.588Z,5420
2016-12-27T11:13:19.489Z,5280
2016-12-27T11:14:28.430Z,4976
2016-12-27T11:15:37.005Z,4656
2016-12-27T11:16:45.580Z,5076
2016-12-27T11:17:54.787Z,4668
2016-12-27T11:19:03.359Z,4176
2016-12-27T11:20:12.285Z,4664
2016-12-27T11:21:20.860Z,4564
2016-12-27T11:22:29.438Z,4732
2016-12-27T11:23:38.650Z,4764
2016-12-27T11:24:47.546Z,5220
2016-12-27T11:25:56.417Z,5672
2016-12-27T11:27:05.309Z,5388
2016-12-27T11:28:13.910Z,5580
2016-12-27T11:29:22.832Z,5688
2016-12-27T11:30:31.722Z,5896
2016-12-27T11:31:41.287Z,5708
2016-12-27T11:32:49.895Z,5592
2016-12-27T11:33:58.467Z,5752
2016-12-27T11:35:07.049Z,5680
2016-12-27T11:36:15.946Z,5616
2016-12-27T11:37:25.190Z,5740
2016-12-27T11:38:33.765Z,5808
2016-12-27T11:39:42.335Z,5672
2016-12-27T11:40:51.229Z,5764
2016-12-27T11:42:00.125Z,5908
2016-12-27T11:43:09.692Z,5828
2016-12-27T11:44:18.586Z,5720
2016-12-27T11:45:27.165Z,5684
2016-12-27T11:46:35.739Z,5364
2016-12-27T11:47:44.307Z,5272
2016-12-27T11:48:53.230Z,5468
2016-12-27T11:50:01.806Z,5244
2016-12-27T11:51:10.388Z,5428
2016-12-27T11:52:19.277Z,5768
2016-12-27T11:53:28.169Z,5316
2016-12-27T11:54:37.732Z,5648
2016-12-27T11:55:47.295Z,5384
2016-12-27T11:56:56.182Z,5744
2016-12-27T11:58:04.756Z,5836
2016-12-27T11:59:13.333Z,5356
2016-12-27T12:00:22.283Z,5540
2016-12-27T12:01:31.174Z,5824
2016-12-27T12:02:40.066Z,5684
2016-12-27T12:03:48.956Z,5404
2016-12-27T12:04:57.852Z,5828
2016-12-27T12:06:06.781Z,5616
2016-12-27T12:07:16.017Z,6068
2016-12-27T12:08:24.911Z,6532
2016-12-27T12:09:33.492Z,6192
2016-12-27T12:10:42.066Z,6148
2016-12-27T12:11:50.991Z,5960
2016-12-27T12:12:59.568Z,5740
2016-12-27T12:14:08.145Z,5692
2016-12-27T12:15:16.745Z,5864
2016-12-27T12:16:25.634Z,5640
2016-12-27T12:17:35.192Z,5404
2016-12-27T12:18:44.094Z,5176
2016-12-27T12:19:52.989Z,5276
2016-12-27T12:21:01.561Z,5648
2016-12-27T12:22:10.775Z,5560
2016-12-27T12:23:20.016Z,5292
2016-12-27T12:24:28.905Z,5408
2016-12-27T12:25:37.482Z,4960
2016-12-27T12:26:46.056Z,4984
2016-12-27T12:27:54.949Z,5248
2016-12-27T12:29:04.193Z,5344
2016-12-27T12:30:12.767Z,5200
2016-12-27T12:31:21.667Z,5148
2016-12-27T12:32:30.562Z,5032
2016-12-27T12:33:39.453Z,4316
2016-12-27T12:34:48.382Z,4308
2016-12-27T12:35:57.279Z,4084
2016-12-27T12:37:06.174Z,4216
2016-12-27T12:38:15.068Z,4352
2016-12-27T12:39:23.954Z,3760
2016-12-27T12:40:32.950Z,4200
2016-12-27T12:41:41.524Z,4360
2016-12-27T12:42:50.413Z,4700
2016-12-27T12:43:58.984Z,4508
2016-12-27T12:45:07.556Z,4412
2016-12-27T12:46:16.481Z,4236
2016-12-27T12:47:25.054Z,4020
2016-12-27T12:48:33.629Z,3580
2016-12-27T12:49:42.200Z,3632
2016-12-27T12:50:50.769Z,3620
2016-12-27T12:52:00.903Z,4168
2016-12-27T12:53:09.473Z,3904
2016-12-27T12:54:18.707Z,3560
2016-12-27T12:55:27.311Z,3080
2016-12-27T12:56:35.910Z,2840
2016-12-27T12:57:45.230Z,2700
2016-12-27T12:58:54.465Z,2880
2016-12-27T13:00:03.669Z,2716
2016-12-27T13:01:12.243Z,3176
2016-12-27T13:02:20.820Z,3028
2016-12-27T13:03:30.061Z,3164
2016-12-27T13:04:38.954Z,2976
2016-12-27T13:05:47.848Z,3708
2016-12-27T13:06:56.748Z,3976
2016-12-27T13:08:05.644Z,4156
2016-12-27T13:09:14.887Z,4204
2016-12-27T13:10:23.456Z,4048
2016-12-27T13:11:32.031Z,3904
2016-12-27T13:12:40.930Z,3812
2016-12-27T13:13:49.818Z,3628
2016-12-27T13:14:58.440Z,3384
2016-12-27T13:16:07.339Z,2860
2016-12-27T13:17:16.232Z,2124
2016-12-27T13:18:25.119Z,1820
2016-12-27T13:19:34.009Z,1548
2016-12-27T13:20:43.257Z,1324
2016-12-27T13:21:51.832Z,1244
2016-12-27T13:23:00.728Z,1172
2016-12-27T13:24:09.302Z,1200
2016-12-27T13:25:18.196Z,1840
2016-12-27T13:26:27.455Z,2260
2016-12-27T13:27:36.027Z,2144
2016-12-27T13:28:45.553Z,1992
2016-12-27T13:29:54.765Z,2116
2016-12-27T13:31:03.655Z,1740
2016-12-27T13:32:12.953Z,1676
2016-12-27T13:33:21.528Z,1600
2016-12-27T13:34:30.735Z,1448
2016-12-27T13:35:39.953Z,1372
2016-12-27T13:36:48.533Z,1440
2016-12-27T13:37:57.776Z,1524
2016-12-27T13:39:06.675Z,1716
2016-12-27T13:40:15.247Z,2108
2016-12-27T13:41:24.133Z,2020
2016-12-27T13:42:32.707Z,1932
2016-12-27T13:43:41.949Z,2024
2016-12-27T13:44:50.522Z,2672
2016-12-27T13:45:59.097Z,3516
2016-12-27T13:47:07.988Z,3560
2016-12-27T13:48:16.882Z,3468
2016-12-27T13:49:26.466Z,3480
2016-12-27T13:50:35.036Z,3740
2016-12-27T13:51:43.927Z,3760
2016-12-27T13:52:52.502Z,3504
2016-12-27T13:54:01.718Z,3528
2016-12-27T13:55:10.645Z,3888
2016-12-27T13:56:19.225Z,4088
2016-12-27T13:57:28.449Z,3864
2016-12-27T13:58:37.023Z,3912
2016-12-27T13:59:46.231Z,4220
2016-12-27T14:00:55.161Z,4240
2016-12-27T14:02:04.060Z,4148
2016-12-27T14:03:12.632Z,4052
2016-12-27T14:04:21.524Z,4024
2016-12-27T14:05:30.740Z,3864
2016-12-27T14:06:39.362Z,3796
2016-12-27T14:07:48.253Z,3528
2016-12-27T14:08:57.784Z,3360
2016-12-27T14:10:06.674Z,3312
2016-12-27T14:11:15.915Z,3308
2016-12-27T14:12:25.157Z,3172
2016-12-27T14:13:34.371Z,3060
2016-12-27T14:14:43.264Z,3020
2016-12-27T14:15:51.853Z,3064
2016-12-27T14:17:00.760Z,3064
2016-12-27T14:18:09.690Z,3032
2016-12-27T14:19:18.589Z,2960
2016-12-27T14:20:27.483Z,2908
2016-12-27T14:21:36.056Z,2832
2016-12-27T14:22:45.266Z,2764
2016-12-27T14:23:54.557Z,2700
2016-12-27T14:25:03.446Z,2652
2016-12-27T14:26:12.659Z,2632
2016-12-27T14:27:21.575Z,2620
2016-12-27T14:28:30.786Z,2568
2016-12-27T14:29:40.131Z,2520
2016-12-27T14:30:48.708Z,2432
2016-12-27T14:31:57.604Z,2332
2016-12-27T14:33:06.815Z,2256
2016-12-27T14:34:16.025Z,2224
2016-12-27T14:35:24.947Z,2168
2016-12-27T14:36:33.837Z,2108
2016-12-27T14:37:42.728Z,2028
2016-12-27T14:38:51.301Z,1928
2016-12-27T14:39:59.877Z,1828
2016-12-27T14:41:08.501Z,1728
2016-12-27T14:42:17.082Z,1624
2016-12-27T14:43:25.653Z,1552
2016-12-27T14:44:35.188Z,1488
2016-12-27T14:45:43.764Z,1436
2016-12-27T14:46:53.424Z,1384
2016-12-27T14:48:02.323Z,1324
2016-12-27T14:49:10.918Z,1276
2016-12-27T14:50:19.812Z,1244
2016-12-27T14:51:28.386Z,1208
2016-12-27T14:52:37.732Z,1172
2016-12-27T14:53:46.943Z,1104
2016-12-27T14:54:56.152Z,1032
2016-12-27T14:56:05.370Z,952
2016-12-27T14:57:14.904Z,884
2016-12-27T14:58:23.932Z,828
2016-12-27T14:59:33.147Z,784
2016-12-27T15:00:42.067Z,740
2016-12-27T15:01:50.956Z,700
2016-12-27T15:02:59.530Z,672
2016-12-27T15:04:08.769Z,644
2016-12-27T15:05:17.344Z,608
2016-12-27T15:06:25.911Z,556
2016-12-27T15:07:35.128Z,496
2016-12-27T15:08:44.340Z,440
2016-12-27T15:09:53.363Z,388
2016-12-27T15:11:02.254Z,348
2016-12-27T15:12:10.823Z,324
2016-12-27T15:13:19.398Z,300
2016-12-27T15:14:28.290Z,284
2016-12-27T15:15:37.262Z,268
2016-12-27T15:16:46.150Z,248
2016-12-27T15:17:55.046Z,224
2016-12-27T15:19:04.260Z,200
2016-12-27T15:20:12.833Z,180
2016-12-27T15:21:22.071Z,160
2016-12-27T15:22:30.640Z,140
2016-12-27T15:23:39.215Z,128
2016-12-27T15:24:47.787Z,112
2016-12-27T15:25:56.676Z,108
2016-12-27T15:27:05.603Z,100
2016-12-27T15:28:15.126Z,88
2016-12-27T15:29:24.017Z,76
2016-12-27T15:30:32.909Z,64
2016-12-27T15:31:41.797Z,56
2016-12-27T15:32:50.471Z,44
2016-12-27T15:33:59.047Z,36
2016-12-27T15:35:07.645Z,32
2016-12-27T15:36:16.537Z,24
2016-12-27T15:37:25.109Z,20
2016-12-27T15:38:34.039Z,20
2016-12-27T15:39:42.930Z,16
2016-12-27T15:40:51.507Z,16
2016-12-27T15:42:00.397Z,12
2016-12-27T15:43:08.973Z,12
2016-12-27T15:44:18.637Z,8
2016-12-27T15:45:27.554Z,8
2016-12-27T15:46:36.130Z,8
2016-12-27T15:47:44.702Z,4
2016-12-27T15:48:53.595Z,4
2016-12-27T15:50:02.520Z,4
2016-12-27T15:51:11.410Z,0
2016-12-27T15:52:19.980Z,0
2016-12-27T15:53:28.582Z,4
2016-12-27T15:54:37.151Z,4
2016-12-27T15:55:46.810Z,0
2016-12-27T15:56:55.392Z,0
2016-12-27T15:58:03.962Z,0
2016-12-27T15:59:12.853Z,0
2016-12-27T16:00:21.738Z,0
2016-12-27T16:01:30.977Z,0
2016-12-27T16:02:39.873Z,0
2016-12-27T16:03:48.767Z,0
2016-12-27T16:04:57.975Z,0
2016-12-27T16:06:06.869Z,0
2016-12-27T16:07:16.513Z,0